sensor_id;sensor_type;location;lat;lon;timestamp;P1;durP1;ratioP1;P2;durP2;ratioP2
57067;SDS011;43391;47.448;18.904;2023-05-15T00:01:04;16.67;;;14.20;;
57067;SDS011;43391;47.448;18.904;2023-05-15T00:03:29;17.10;;;15.30;;
57067;SDS011;43391;47.448;18.904;2023-05-15T00:05:55;17.17;;;15.30;;
57067;SDS011;43391;47.448;18.904;2023-05-15T00:08:21;17.48;;;14.30;;
57067;SDS011;43391;47.448;18.904;2023-05-15T00:10:46;17.08;;;14.77;;
57067;SDS011;43391;47.448;18.904;2023-05-15T00:13:12;20.15;;;15.95;;
57067;SDS011;43391;47.448;18.904;2023-05-15T00:15:37;18.40;;;15.77;;
57067;SDS011;43391;47.448;18.904;2023-05-15T00:18:03;27.02;;;17.48;;
57067;SDS011;43391;47.448;18.904;2023-05-15T00:20:28;19.40;;;16.10;;
57067;SDS011;43391;47.448;18.904;2023-05-15T00:22:53;20.20;;;16.52;;
57067;SDS011;43391;47.448;18.904;2023-05-15T00:25:19;20.33;;;16.95;;
57067;SDS011;43391;47.448;18.904;2023-05-15T00:27:44;22.60;;;18.05;;
57067;SDS011;43391;47.448;18.904;2023-05-15T00:30:10;21.02;;;16.42;;
57067;SDS011;43391;47.448;18.904;2023-05-15T00:32:36;21.25;;;17.35;;
57067;SDS011;43391;47.448;18.904;2023-05-15T00:35:01;19.60;;;16.85;;
57067;SDS011;43391;47.448;18.904;2023-05-15T00:37:26;21.92;;;17.95;;
57067;SDS011;43391;47.448;18.904;2023-05-15T00:39:52;21.13;;;17.48;;
57067;SDS011;43391;47.448;18.904;2023-05-15T00:42:17;19.38;;;17.00;;
57067;SDS011;43391;47.448;18.904;2023-05-15T00:44:43;21.02;;;16.77;;
57067;SDS011;43391;47.448;18.904;2023-05-15T00:47:09;24.42;;;19.50;;
57067;SDS011;43391;47.448;18.904;2023-05-15T00:49:35;21.20;;;18.85;;
57067;SDS011;43391;47.448;18.904;2023-05-15T00:52:01;21.77;;;17.75;;
57067;SDS011;43391;47.448;18.904;2023-05-15T00:54:27;22.50;;;19.40;;
57067;SDS011;43391;47.448;18.904;2023-05-15T00:56:55;21.05;;;18.73;;
57067;SDS011;43391;47.448;18.904;2023-05-15T00:59:22;24.60;;;19.55;;
57067;SDS011;43391;47.448;18.904;2023-05-15T01:01:50;27.08;;;19.63;;
57067;SDS011;43391;47.448;18.904;2023-05-15T01:04:15;24.70;;;19.75;;
57067;SDS011;43391;47.448;18.904;2023-05-15T01:06:41;23.77;;;19.25;;
57067;SDS011;43391;47.448;18.904;2023-05-15T01:09:06;23.40;;;19.10;;
57067;SDS011;43391;47.448;18.904;2023-05-15T01:11:34;23.70;;;19.70;;
57067;SDS011;43391;47.448;18.904;2023-05-15T01:14:05;27.80;;;20.58;;
57067;SDS011;43391;47.448;18.904;2023-05-15T01:16:31;24.27;;;19.38;;
57067;SDS011;43391;47.448;18.904;2023-05-15T01:18:57;23.00;;;20.40;;
57067;SDS011;43391;47.448;18.904;2023-05-15T01:29:29;24.63;;;20.75;;
57067;SDS011;43391;47.448;18.904;2023-05-15T01:32:02;24.83;;;21.17;;
57067;SDS011;43391;47.448;18.904;2023-05-15T01:34:43;24.55;;;21.77;;
57067;SDS011;43391;47.448;18.904;2023-05-15T01:37:25;26.15;;;22.50;;
57067;SDS011;43391;47.448;18.904;2023-05-15T01:42:22;25.10;;;21.00;;
57067;SDS011;43391;47.448;18.904;2023-05-15T01:44:54;25.38;;;22.13;;
57067;SDS011;43391;47.448;18.904;2023-05-15T01:47:25;27.23;;;22.80;;
57067;SDS011;43391;47.448;18.904;2023-05-15T01:49:53;26.63;;;21.83;;
57067;SDS011;43391;47.448;18.904;2023-05-15T01:52:42;26.92;;;21.05;;
57067;SDS011;43391;47.448;18.904;2023-05-15T01:55:08;25.83;;;22.02;;
57067;SDS011;43391;47.448;18.904;2023-05-15T01:57:35;27.92;;;22.42;;
57067;SDS011;43391;47.448;18.904;2023-05-15T02:00:01;29.23;;;22.52;;
57067;SDS011;43391;47.448;18.904;2023-05-15T02:02:28;27.55;;;22.65;;
57067;SDS011;43391;47.448;18.904;2023-05-15T02:04:55;25.30;;;22.33;;
57067;SDS011;43391;47.448;18.904;2023-05-15T02:07:21;27.52;;;23.25;;
57067;SDS011;43391;47.448;18.904;2023-05-15T02:09:48;27.98;;;22.38;;
57067;SDS011;43391;47.448;18.904;2023-05-15T02:12:16;25.75;;;22.65;;
57067;SDS011;43391;47.448;18.904;2023-05-15T02:14:42;27.08;;;23.17;;
57067;SDS011;43391;47.448;18.904;2023-05-15T02:17:08;25.27;;;21.80;;
57067;SDS011;43391;47.448;18.904;2023-05-15T02:19:33;31.27;;;24.35;;
57067;SDS011;43391;47.448;18.904;2023-05-15T02:21:58;31.55;;;23.08;;
57067;SDS011;43391;47.448;18.904;2023-05-15T02:24:24;27.73;;;23.52;;
57067;SDS011;43391;47.448;18.904;2023-05-15T02:29:24;27.98;;;22.88;;
57067;SDS011;43391;47.448;18.904;2023-05-15T02:32:00;31.77;;;24.75;;
57067;SDS011;43391;47.448;18.904;2023-05-15T02:37:09;30.77;;;23.02;;
57067;SDS011;43391;47.448;18.904;2023-05-15T02:39:39;30.15;;;22.58;;
57067;SDS011;43391;47.448;18.904;2023-05-15T02:42:08;31.50;;;24.67;;
57067;SDS011;43391;47.448;18.904;2023-05-15T02:44:35;31.67;;;24.85;;
57067;SDS011;43391;47.448;18.904;2023-05-15T02:47:01;31.42;;;25.55;;
57067;SDS011;43391;47.448;18.904;2023-05-15T02:49:28;31.23;;;25.95;;
57067;SDS011;43391;47.448;18.904;2023-05-15T02:51:53;30.00;;;25.20;;
57067;SDS011;43391;47.448;18.904;2023-05-15T02:54:18;32.10;;;25.20;;
57067;SDS011;43391;47.448;18.904;2023-05-15T02:56:45;32.35;;;25.35;;
57067;SDS011;43391;47.448;18.904;2023-05-15T02:59:10;32.65;;;25.15;;
57067;SDS011;43391;47.448;18.904;2023-05-15T03:01:37;34.75;;;26.73;;
57067;SDS011;43391;47.448;18.904;2023-05-15T03:04:03;35.47;;;26.17;;
57067;SDS011;43391;47.448;18.904;2023-05-15T03:06:28;33.80;;;25.25;;
57067;SDS011;43391;47.448;18.904;2023-05-15T03:08:55;29.70;;;24.30;;
57067;SDS011;43391;47.448;18.904;2023-05-15T03:11:20;33.65;;;24.77;;
57067;SDS011;43391;47.448;18.904;2023-05-15T03:13:46;30.50;;;25.00;;
57067;SDS011;43391;47.448;18.904;2023-05-15T03:16:11;33.40;;;25.35;;
57067;SDS011;43391;47.448;18.904;2023-05-15T03:18:36;30.23;;;24.45;;
57067;SDS011;43391;47.448;18.904;2023-05-15T03:21:02;30.20;;;24.75;;
57067;SDS011;43391;47.448;18.904;2023-05-15T03:23:27;31.65;;;24.58;;
57067;SDS011;43391;47.448;18.904;2023-05-15T03:25:52;33.00;;;25.60;;
57067;SDS011;43391;47.448;18.904;2023-05-15T03:28:18;29.70;;;24.63;;
57067;SDS011;43391;47.448;18.904;2023-05-15T03:30:43;32.40;;;25.35;;
57067;SDS011;43391;47.448;18.904;2023-05-15T03:33:09;30.58;;;25.38;;
57067;SDS011;43391;47.448;18.904;2023-05-15T03:35:34;30.95;;;24.30;;
57067;SDS011;43391;47.448;18.904;2023-05-15T03:38:00;33.40;;;26.38;;
57067;SDS011;43391;47.448;18.904;2023-05-15T03:40:25;33.00;;;26.35;;
57067;SDS011;43391;47.448;18.904;2023-05-15T03:42:50;33.95;;;26.25;;
57067;SDS011;43391;47.448;18.904;2023-05-15T03:45:17;34.75;;;26.50;;
57067;SDS011;43391;47.448;18.904;2023-05-15T03:47:43;35.55;;;26.85;;
57067;SDS011;43391;47.448;18.904;2023-05-15T03:50:08;35.50;;;26.25;;
57067;SDS011;43391;47.448;18.904;2023-05-15T03:52:34;38.67;;;26.88;;
57067;SDS011;43391;47.448;18.904;2023-05-15T03:55:00;33.75;;;25.63;;
57067;SDS011;43391;47.448;18.904;2023-05-15T03:57:25;34.53;;;25.73;;
57067;SDS011;43391;47.448;18.904;2023-05-15T03:59:51;35.42;;;25.42;;
57067;SDS011;43391;47.448;18.904;2023-05-15T04:02:16;34.70;;;25.00;;
57067;SDS011;43391;47.448;18.904;2023-05-15T04:04:41;33.63;;;26.08;;
57067;SDS011;43391;47.448;18.904;2023-05-15T04:07:08;35.45;;;27.15;;
57067;SDS011;43391;47.448;18.904;2023-05-15T04:09:34;32.70;;;26.08;;
57067;SDS011;43391;47.448;18.904;2023-05-15T04:11:59;37.75;;;25.85;;
57067;SDS011;43391;47.448;18.904;2023-05-15T04:14:24;35.95;;;25.77;;
57067;SDS011;43391;47.448;18.904;2023-05-15T04:16:50;33.20;;;26.27;;
57067;SDS011;43391;47.448;18.904;2023-05-15T04:19:15;37.92;;;26.83;;
57067;SDS011;43391;47.448;18.904;2023-05-15T04:21:40;34.42;;;27.23;;
57067;SDS011;43391;47.448;18.904;2023-05-15T04:24:06;33.72;;;26.85;;
57067;SDS011;43391;47.448;18.904;2023-05-15T04:26:32;33.20;;;25.33;;
57067;SDS011;43391;47.448;18.904;2023-05-15T04:28:58;34.22;;;25.80;;
57067;SDS011;43391;47.448;18.904;2023-05-15T04:31:23;35.33;;;25.30;;
57067;SDS011;43391;47.448;18.904;2023-05-15T04:33:49;34.92;;;25.50;;
57067;SDS011;43391;47.448;18.904;2023-05-15T04:36:15;37.78;;;26.00;;
57067;SDS011;43391;47.448;18.904;2023-05-15T04:38:40;39.70;;;26.73;;
57067;SDS011;43391;47.448;18.904;2023-05-15T04:41:06;41.25;;;27.92;;
57067;SDS011;43391;47.448;18.904;2023-05-15T04:43:31;41.88;;;27.75;;
57067;SDS011;43391;47.448;18.904;2023-05-15T04:45:56;44.83;;;29.20;;
57067;SDS011;43391;47.448;18.904;2023-05-15T04:48:22;44.13;;;27.52;;
57067;SDS011;43391;47.448;18.904;2023-05-15T04:50:47;45.10;;;28.45;;
57067;SDS011;43391;47.448;18.904;2023-05-15T04:53:13;47.50;;;30.42;;
57067;SDS011;43391;47.448;18.904;2023-05-15T04:55:38;46.50;;;30.17;;
57067;SDS011;43391;47.448;18.904;2023-05-15T04:58:04;45.78;;;29.13;;
57067;SDS011;43391;47.448;18.904;2023-05-15T05:00:29;46.15;;;29.27;;
57067;SDS011;43391;47.448;18.904;2023-05-15T05:02:55;48.70;;;30.35;;
57067;SDS011;43391;47.448;18.904;2023-05-15T05:05:20;47.67;;;31.08;;
57067;SDS011;43391;47.448;18.904;2023-05-15T05:07:45;49.78;;;31.45;;
57067;SDS011;43391;47.448;18.904;2023-05-15T05:10:12;53.17;;;31.67;;
57067;SDS011;43391;47.448;18.904;2023-05-15T05:12:37;51.42;;;31.48;;
57067;SDS011;43391;47.448;18.904;2023-05-15T05:15:03;52.97;;;32.67;;
57067;SDS011;43391;47.448;18.904;2023-05-15T05:17:29;53.22;;;32.92;;
57067;SDS011;43391;47.448;18.904;2023-05-15T05:19:55;51.65;;;31.88;;
57067;SDS011;43391;47.448;18.904;2023-05-15T05:22:20;45.15;;;29.48;;
57067;SDS011;43391;47.448;18.904;2023-05-15T05:24:46;48.75;;;32.03;;
57067;SDS011;43391;47.448;18.904;2023-05-15T05:27:11;44.13;;;30.13;;
57067;SDS011;43391;47.448;18.904;2023-05-15T05:29:36;49.72;;;31.05;;
57067;SDS011;43391;47.448;18.904;2023-05-15T05:32:03;44.72;;;29.55;;
57067;SDS011;43391;47.448;18.904;2023-05-15T05:34:30;47.53;;;32.00;;
57067;SDS011;43391;47.448;18.904;2023-05-15T05:36:56;47.50;;;30.63;;
57067;SDS011;43391;47.448;18.904;2023-05-15T05:39:21;43.08;;;28.67;;
57067;SDS011;43391;47.448;18.904;2023-05-15T05:41:46;36.13;;;25.63;;
57067;SDS011;43391;47.448;18.904;2023-05-15T05:44:12;36.67;;;24.90;;
57067;SDS011;43391;47.448;18.904;2023-05-15T05:46:37;37.10;;;24.15;;
57067;SDS011;43391;47.448;18.904;2023-05-15T05:49:03;37.58;;;24.70;;
57067;SDS011;43391;47.448;18.904;2023-05-15T05:51:28;36.08;;;24.80;;
57067;SDS011;43391;47.448;18.904;2023-05-15T05:53:53;35.95;;;24.63;;
57067;SDS011;43391;47.448;18.904;2023-05-15T05:56:19;35.55;;;23.95;;
57067;SDS011;43391;47.448;18.904;2023-05-15T05:58:45;37.78;;;25.00;;
57067;SDS011;43391;47.448;18.904;2023-05-15T06:01:11;36.03;;;23.85;;
57067;SDS011;43391;47.448;18.904;2023-05-15T06:03:37;33.72;;;22.98;;
57067;SDS011;43391;47.448;18.904;2023-05-15T06:06:03;36.65;;;22.70;;
57067;SDS011;43391;47.448;18.904;2023-05-15T06:08:29;34.75;;;23.63;;
57067;SDS011;43391;47.448;18.904;2023-05-15T06:10:54;31.38;;;22.92;;
57067;SDS011;43391;47.448;18.904;2023-05-15T06:13:19;29.25;;;20.42;;
57067;SDS011;43391;47.448;18.904;2023-05-15T06:15:45;27.52;;;19.75;;
57067;SDS011;43391;47.448;18.904;2023-05-15T06:18:11;27.90;;;19.75;;
57067;SDS011;43391;47.448;18.904;2023-05-15T06:20:36;21.67;;;17.42;;
57067;SDS011;43391;47.448;18.904;2023-05-15T06:23:02;22.00;;;17.27;;
57067;SDS011;43391;47.448;18.904;2023-05-15T06:25:28;21.52;;;16.08;;
57067;SDS011;43391;47.448;18.904;2023-05-15T06:27:53;21.20;;;16.40;;
57067;SDS011;43391;47.448;18.904;2023-05-15T06:30:19;23.27;;;16.95;;
57067;SDS011;43391;47.448;18.904;2023-05-15T06:32:45;20.65;;;15.43;;
57067;SDS011;43391;47.448;18.904;2023-05-15T06:35:10;21.40;;;16.23;;
57067;SDS011;43391;47.448;18.904;2023-05-15T06:37:36;19.38;;;15.57;;
57067;SDS011;43391;47.448;18.904;2023-05-15T06:40:02;20.80;;;16.33;;
57067;SDS011;43391;47.448;18.904;2023-05-15T06:42:28;21.85;;;16.25;;
57067;SDS011;43391;47.448;18.904;2023-05-15T06:44:55;20.88;;;16.55;;
57067;SDS011;43391;47.448;18.904;2023-05-15T06:47:20;23.83;;;17.08;;
57067;SDS011;43391;47.448;18.904;2023-05-15T06:49:45;23.00;;;17.58;;
57067;SDS011;43391;47.448;18.904;2023-05-15T06:52:11;44.92;;;25.83;;
57067;SDS011;43391;47.448;18.904;2023-05-15T06:54:36;39.15;;;25.83;;
57067;SDS011;43391;47.448;18.904;2023-05-15T06:57:04;44.65;;;28.70;;
57067;SDS011;43391;47.448;18.904;2023-05-15T06:59:30;31.42;;;22.95;;
57067;SDS011;43391;47.448;18.904;2023-05-15T07:01:58;26.13;;;20.00;;
57067;SDS011;43391;47.448;18.904;2023-05-15T07:04:24;20.88;;;16.20;;
57067;SDS011;43391;47.448;18.904;2023-05-15T07:06:50;34.80;;;22.90;;
57067;SDS011;43391;47.448;18.904;2023-05-15T07:09:15;33.15;;;23.20;;
57067;SDS011;43391;47.448;18.904;2023-05-15T07:11:40;23.50;;;17.80;;
57067;SDS011;43391;47.448;18.904;2023-05-15T07:14:06;25.30;;;18.30;;
57067;SDS011;43391;47.448;18.904;2023-05-15T07:16:31;18.90;;;14.52;;
57067;SDS011;43391;47.448;18.904;2023-05-15T07:18:57;22.45;;;17.80;;
57067;SDS011;43391;47.448;18.904;2023-05-15T07:21:22;19.58;;;14.80;;
57067;SDS011;43391;47.448;18.904;2023-05-15T07:23:47;16.95;;;13.55;;
57067;SDS011;43391;47.448;18.904;2023-05-15T07:26:13;48.78;;;29.98;;
57067;SDS011;43391;47.448;18.904;2023-05-15T07:28:39;64.32;;;34.92;;
57067;SDS011;43391;47.448;18.904;2023-05-15T07:31:04;57.55;;;31.27;;
57067;SDS011;43391;47.448;18.904;2023-05-15T07:33:30;29.73;;;18.58;;
57067;SDS011;43391;47.448;18.904;2023-05-15T07:35:55;31.23;;;20.60;;
57067;SDS011;43391;47.448;18.904;2023-05-15T07:38:20;32.47;;;19.80;;
57067;SDS011;43391;47.448;18.904;2023-05-15T07:40:46;18.60;;;14.65;;
57067;SDS011;43391;47.448;18.904;2023-05-15T07:43:11;18.20;;;13.88;;
57067;SDS011;43391;47.448;18.904;2023-05-15T07:45:36;17.15;;;13.52;;
57067;SDS011;43391;47.448;18.904;2023-05-15T07:50:40;13.30;;;10.35;;
57067;SDS011;43391;47.448;18.904;2023-05-15T07:53:06;10.88;;;9.13;;
57067;SDS011;43391;47.448;18.904;2023-05-15T07:55:31;16.45;;;13.35;;
57067;SDS011;43391;47.448;18.904;2023-05-15T07:57:57;16.08;;;12.43;;
57067;SDS011;43391;47.448;18.904;2023-05-15T08:00:22;13.13;;;10.07;;
57067;SDS011;43391;47.448;18.904;2023-05-15T08:02:48;12.52;;;9.80;;
57067;SDS011;43391;47.448;18.904;2023-05-15T08:05:13;12.55;;;9.20;;
57067;SDS011;43391;47.448;18.904;2023-05-15T08:07:39;11.25;;;9.05;;
57067;SDS011;43391;47.448;18.904;2023-05-15T08:10:05;10.13;;;8.20;;
57067;SDS011;43391;47.448;18.904;2023-05-15T08:12:31;14.50;;;9.50;;
57067;SDS011;43391;47.448;18.904;2023-05-15T08:14:56;12.35;;;9.98;;
57067;SDS011;43391;47.448;18.904;2023-05-15T08:17:24;11.20;;;9.18;;
57067;SDS011;43391;47.448;18.904;2023-05-15T08:19:50;11.00;;;8.52;;
57067;SDS011;43391;47.448;18.904;2023-05-15T08:22:16;11.88;;;9.50;;
57067;SDS011;43391;47.448;18.904;2023-05-15T08:24:41;10.95;;;8.80;;
57067;SDS011;43391;47.448;18.904;2023-05-15T08:27:07;9.30;;;8.00;;
57067;SDS011;43391;47.448;18.904;2023-05-15T08:29:36;10.80;;;8.38;;
57067;SDS011;43391;47.448;18.904;2023-05-15T08:34:27;10.25;;;7.68;;
57067;SDS011;43391;47.448;18.904;2023-05-15T08:36:53;8.88;;;7.68;;
57067;SDS011;43391;47.448;18.904;2023-05-15T08:39:19;9.20;;;7.10;;
57067;SDS011;43391;47.448;18.904;2023-05-15T08:44:29;7.68;;;6.80;;
57067;SDS011;43391;47.448;18.904;2023-05-15T08:46:54;7.85;;;6.50;;
57067;SDS011;43391;47.448;18.904;2023-05-15T08:49:26;9.35;;;7.50;;
57067;SDS011;43391;47.448;18.904;2023-05-15T08:51:57;7.82;;;6.57;;
57067;SDS011;43391;47.448;18.904;2023-05-15T08:54:23;7.15;;;6.20;;
57067;SDS011;43391;47.448;18.904;2023-05-15T08:56:49;7.00;;;6.05;;
57067;SDS011;43391;47.448;18.904;2023-05-15T08:59:14;8.07;;;6.40;;
57067;SDS011;43391;47.448;18.904;2023-05-15T09:01:40;8.45;;;7.30;;
57067;SDS011;43391;47.448;18.904;2023-05-15T09:04:06;9.10;;;8.23;;
57067;SDS011;43391;47.448;18.904;2023-05-15T09:06:32;10.20;;;8.60;;
57067;SDS011;43391;47.448;18.904;2023-05-15T09:08:58;9.95;;;8.40;;
57067;SDS011;43391;47.448;18.904;2023-05-15T09:11:26;9.93;;;6.70;;
57067;SDS011;43391;47.448;18.904;2023-05-15T09:13:56;7.80;;;6.50;;
57067;SDS011;43391;47.448;18.904;2023-05-15T09:16:23;8.45;;;6.40;;
57067;SDS011;43391;47.448;18.904;2023-05-15T09:18:49;7.97;;;6.35;;
57067;SDS011;43391;47.448;18.904;2023-05-15T09:21:23;8.25;;;7.00;;
57067;SDS011;43391;47.448;18.904;2023-05-15T09:23:53;10.73;;;6.85;;
57067;SDS011;43391;47.448;18.904;2023-05-15T09:26:19;10.82;;;7.55;;
57067;SDS011;43391;47.448;18.904;2023-05-15T09:28:46;8.43;;;6.93;;
57067;SDS011;43391;47.448;18.904;2023-05-15T09:31:12;8.60;;;6.18;;
57067;SDS011;43391;47.448;18.904;2023-05-15T09:33:39;12.50;;;6.68;;
57067;SDS011;43391;47.448;18.904;2023-05-15T09:36:06;7.22;;;5.50;;
57067;SDS011;43391;47.448;18.904;2023-05-15T09:38:33;6.72;;;4.78;;
57067;SDS011;43391;47.448;18.904;2023-05-15T09:41:04;6.40;;;4.78;;
57067;SDS011;43391;47.448;18.904;2023-05-15T09:43:38;8.70;;;5.22;;
57067;SDS011;43391;47.448;18.904;2023-05-15T09:46:04;4.90;;;3.90;;
57067;SDS011;43391;47.448;18.904;2023-05-15T09:48:30;6.50;;;4.30;;
57067;SDS011;43391;47.448;18.904;2023-05-15T09:50:56;5.05;;;4.03;;
57067;SDS011;43391;47.448;18.904;2023-05-15T09:53:22;4.30;;;3.70;;
57067;SDS011;43391;47.448;18.904;2023-05-15T09:55:48;5.32;;;3.72;;
57067;SDS011;43391;47.448;18.904;2023-05-15T09:58:15;3.97;;;3.58;;
57067;SDS011;43391;47.448;18.904;2023-05-15T10:00:42;5.90;;;3.55;;
57067;SDS011;43391;47.448;18.904;2023-05-15T10:03:09;3.80;;;3.33;;
57067;SDS011;43391;47.448;18.904;2023-05-15T10:05:34;3.10;;;2.80;;
57067;SDS011;43391;47.448;18.904;2023-05-15T10:08:00;4.90;;;3.25;;
57067;SDS011;43391;47.448;18.904;2023-05-15T10:10:26;3.65;;;3.05;;
57067;SDS011;43391;47.448;18.904;2023-05-15T10:12:53;5.00;;;2.80;;
57067;SDS011;43391;47.448;18.904;2023-05-15T10:15:22;3.30;;;3.00;;
57067;SDS011;43391;47.448;18.904;2023-05-15T10:17:49;6.13;;;4.22;;
57067;SDS011;43391;47.448;18.904;2023-05-15T10:20:15;7.85;;;4.30;;
57067;SDS011;43391;47.448;18.904;2023-05-15T10:22:44;6.32;;;4.40;;
57067;SDS011;43391;47.448;18.904;2023-05-15T10:27:54;4.70;;;3.03;;
57067;SDS011;43391;47.448;18.904;2023-05-15T10:30:22;4.35;;;3.60;;
57067;SDS011;43391;47.448;18.904;2023-05-15T10:32:48;4.00;;;3.47;;
57067;SDS011;43391;47.448;18.904;2023-05-15T10:35:15;3.78;;;3.38;;
57067;SDS011;43391;47.448;18.904;2023-05-15T10:37:41;3.47;;;3.17;;
57067;SDS011;43391;47.448;18.904;2023-05-15T10:40:09;3.77;;;3.00;;
57067;SDS011;43391;47.448;18.904;2023-05-15T10:42:35;3.50;;;3.20;;
57067;SDS011;43391;47.448;18.904;2023-05-15T10:45:02;5.43;;;3.03;;
57067;SDS011;43391;47.448;18.904;2023-05-15T10:47:31;4.32;;;2.80;;
57067;SDS011;43391;47.448;18.904;2023-05-15T10:49:58;4.20;;;3.22;;
57067;SDS011;43391;47.448;18.904;2023-05-15T10:52:23;4.03;;;3.22;;
57067;SDS011;43391;47.448;18.904;2023-05-15T10:54:49;4.38;;;3.95;;
57067;SDS011;43391;47.448;18.904;2023-05-15T10:57:17;4.83;;;3.97;;
57067;SDS011;43391;47.448;18.904;2023-05-15T10:59:42;9.63;;;3.90;;
57067;SDS011;43391;47.448;18.904;2023-05-15T11:02:27;5.32;;;3.97;;
57067;SDS011;43391;47.448;18.904;2023-05-15T11:07:19;3.83;;;3.50;;
57067;SDS011;43391;47.448;18.904;2023-05-15T11:09:45;3.72;;;3.15;;
57067;SDS011;43391;47.448;18.904;2023-05-15T11:12:10;4.78;;;3.17;;
57067;SDS011;43391;47.448;18.904;2023-05-15T11:14:40;6.30;;;3.72;;
57067;SDS011;43391;47.448;18.904;2023-05-15T11:17:10;3.65;;;3.35;;
57067;SDS011;43391;47.448;18.904;2023-05-15T11:27:12;5.45;;;3.80;;
57067;SDS011;43391;47.448;18.904;2023-05-15T11:32:40;4.65;;;3.92;;
57067;SDS011;43391;47.448;18.904;2023-05-15T11:35:41;3.35;;;3.05;;
57067;SDS011;43391;47.448;18.904;2023-05-15T11:40:43;6.13;;;3.20;;
57067;SDS011;43391;47.448;18.904;2023-05-15T11:45:45;6.07;;;3.10;;
57067;SDS011;43391;47.448;18.904;2023-05-15T11:48:13;3.08;;;2.63;;
57067;SDS011;43391;47.448;18.904;2023-05-15T11:50:40;3.35;;;2.55;;
57067;SDS011;43391;47.448;18.904;2023-05-15T11:53:07;3.53;;;2.20;;
57067;SDS011;43391;47.448;18.904;2023-05-15T11:55:35;5.63;;;2.55;;
57067;SDS011;43391;47.448;18.904;2023-05-15T11:58:02;2.50;;;2.30;;
57067;SDS011;43391;47.448;18.904;2023-05-15T12:00:28;3.28;;;2.17;;
57067;SDS011;43391;47.448;18.904;2023-05-15T12:02:54;2.22;;;2.03;;
57067;SDS011;43391;47.448;18.904;2023-05-15T12:05:20;2.72;;;2.53;;
57067;SDS011;43391;47.448;18.904;2023-05-15T12:07:45;2.60;;;2.28;;
57067;SDS011;43391;47.448;18.904;2023-05-15T12:10:11;2.53;;;2.00;;
57067;SDS011;43391;47.448;18.904;2023-05-15T12:12:40;2.47;;;2.22;;
57067;SDS011;43391;47.448;18.904;2023-05-15T12:15:14;2.80;;;2.42;;
57067;SDS011;43391;47.448;18.904;2023-05-15T12:17:41;3.40;;;2.47;;
57067;SDS011;43391;47.448;18.904;2023-05-15T12:20:09;3.80;;;2.15;;
57067;SDS011;43391;47.448;18.904;2023-05-15T12:22:37;2.53;;;2.20;;
57067;SDS011;43391;47.448;18.904;2023-05-15T12:25:04;2.38;;;2.00;;
57067;SDS011;43391;47.448;18.904;2023-05-15T12:27:31;3.10;;;2.28;;
57067;SDS011;43391;47.448;18.904;2023-05-15T12:29:57;1.95;;;1.75;;
57067;SDS011;43391;47.448;18.904;2023-05-15T12:32:22;1.73;;;1.63;;
57067;SDS011;43391;47.448;18.904;2023-05-15T12:34:48;2.30;;;1.60;;
57067;SDS011;43391;47.448;18.904;2023-05-15T12:37:13;5.63;;;2.20;;
57067;SDS011;43391;47.448;18.904;2023-05-15T12:42:42;2.78;;;1.70;;
57067;SDS011;43391;47.448;18.904;2023-05-15T12:45:14;3.80;;;1.83;;
57067;SDS011;43391;47.448;18.904;2023-05-15T12:47:41;1.92;;;1.75;;
57067;SDS011;43391;47.448;18.904;2023-05-15T12:50:15;1.85;;;1.67;;
57067;SDS011;43391;47.448;18.904;2023-05-15T12:53:01;1.88;;;1.73;;
57067;SDS011;43391;47.448;18.904;2023-05-15T12:55:29;1.67;;;1.35;;
57067;SDS011;43391;47.448;18.904;2023-05-15T12:57:57;1.80;;;1.70;;
57067;SDS011;43391;47.448;18.904;2023-05-15T13:00:24;1.73;;;1.27;;
57067;SDS011;43391;47.448;18.904;2023-05-15T13:02:53;1.70;;;1.50;;
57067;SDS011;43391;47.448;18.904;2023-05-15T13:05:26;2.83;;;1.67;;
57067;SDS011;43391;47.448;18.904;2023-05-15T13:07:56;1.73;;;1.63;;
57067;SDS011;43391;47.448;18.904;2023-05-15T13:10:23;2.00;;;1.88;;
57067;SDS011;43391;47.448;18.904;2023-05-15T13:12:49;1.85;;;1.52;;
57067;SDS011;43391;47.448;18.904;2023-05-15T13:15:31;1.95;;;1.65;;
57067;SDS011;43391;47.448;18.904;2023-05-15T13:20:37;1.70;;;1.60;;
57067;SDS011;43391;47.448;18.904;2023-05-15T13:23:14;2.10;;;1.70;;
57067;SDS011;43391;47.448;18.904;2023-05-15T13:25:41;1.73;;;1.60;;
57067;SDS011;43391;47.448;18.904;2023-05-15T13:28:08;2.75;;;1.80;;
57067;SDS011;43391;47.448;18.904;2023-05-15T13:30:34;2.03;;;1.60;;
57067;SDS011;43391;47.448;18.904;2023-05-15T13:33:00;2.88;;;1.60;;
57067;SDS011;43391;47.448;18.904;2023-05-15T13:35:26;2.30;;;1.67;;
57067;SDS011;43391;47.448;18.904;2023-05-15T13:37:52;1.60;;;1.50;;
57067;SDS011;43391;47.448;18.904;2023-05-15T13:40:17;1.77;;;1.50;;
57067;SDS011;43391;47.448;18.904;2023-05-15T13:42:43;2.42;;;1.67;;
57067;SDS011;43391;47.448;18.904;2023-05-15T13:45:12;2.90;;;1.63;;
57067;SDS011;43391;47.448;18.904;2023-05-15T13:47:39;1.60;;;1.50;;
57067;SDS011;43391;47.448;18.904;2023-05-15T13:50:05;5.50;;;1.80;;
57067;SDS011;43391;47.448;18.904;2023-05-15T13:52:32;1.67;;;1.55;;
57067;SDS011;43391;47.448;18.904;2023-05-15T13:54:57;1.65;;;1.55;;
57067;SDS011;43391;47.448;18.904;2023-05-15T13:57:22;1.58;;;1.38;;
57067;SDS011;43391;47.448;18.904;2023-05-15T13:59:48;1.67;;;1.58;;
57067;SDS011;43391;47.448;18.904;2023-05-15T14:02:13;2.08;;;1.60;;
57067;SDS011;43391;47.448;18.904;2023-05-15T14:04:39;1.85;;;1.75;;
57067;SDS011;43391;47.448;18.904;2023-05-15T14:07:04;2.50;;;1.80;;
57067;SDS011;43391;47.448;18.904;2023-05-15T14:09:30;2.58;;;1.50;;
57067;SDS011;43391;47.448;18.904;2023-05-15T14:11:55;2.10;;;1.45;;
57067;SDS011;43391;47.448;18.904;2023-05-15T14:14:20;1.70;;;1.60;;
57067;SDS011;43391;47.448;18.904;2023-05-15T14:16:46;2.67;;;1.40;;
57067;SDS011;43391;47.448;18.904;2023-05-15T14:19:11;1.75;;;1.65;;
57067;SDS011;43391;47.448;18.904;2023-05-15T14:21:37;1.50;;;1.40;;
57067;SDS011;43391;47.448;18.904;2023-05-15T14:24:03;2.03;;;1.30;;
57067;SDS011;43391;47.448;18.904;2023-05-15T14:26:29;3.53;;;1.58;;
57067;SDS011;43391;47.448;18.904;2023-05-15T14:28:55;3.15;;;1.75;;
57067;SDS011;43391;47.448;18.904;2023-05-15T14:31:20;2.15;;;1.48;;
57067;SDS011;43391;47.448;18.904;2023-05-15T14:33:46;2.60;;;1.98;;
57067;SDS011;43391;47.448;18.904;2023-05-15T14:36:11;1.52;;;1.42;;
57067;SDS011;43391;47.448;18.904;2023-05-15T14:38:36;2.58;;;1.88;;
57067;SDS011;43391;47.448;18.904;2023-05-15T14:41:02;2.67;;;1.80;;
57067;SDS011;43391;47.448;18.904;2023-05-15T14:43:27;1.60;;;1.50;;
57067;SDS011;43391;47.448;18.904;2023-05-15T14:45:53;2.25;;;1.63;;
57067;SDS011;43391;47.448;18.904;2023-05-15T14:48:19;2.55;;;1.58;;
57067;SDS011;43391;47.448;18.904;2023-05-15T14:50:44;2.63;;;1.80;;
57067;SDS011;43391;47.448;18.904;2023-05-15T14:53:10;1.30;;;1.20;;
57067;SDS011;43391;47.448;18.904;2023-05-15T14:55:35;4.20;;;1.70;;
57067;SDS011;43391;47.448;18.904;2023-05-15T14:58:01;2.03;;;1.83;;
57067;SDS011;43391;47.448;18.904;2023-05-15T15:00:26;2.90;;;1.85;;
57067;SDS011;43391;47.448;18.904;2023-05-15T15:02:52;1.70;;;1.60;;
57067;SDS011;43391;47.448;18.904;2023-05-15T15:05:17;3.05;;;1.52;;
57067;SDS011;43391;47.448;18.904;2023-05-15T15:10:38;2.40;;;1.80;;